Time;durP1;ratioP1;P1;durP2;ratioP2;P2;SDS_P1;SDS_P2;PMS_P1;PMS_P2;Temp;Humidity;BMP_temperature;BMP_pressure;BME280_temperature;BME280_humidity;BME280_pressure;Samples;Min_cycle;Max_cycle;Signal;HPM_P1;HPM_P2
2023/06/21 00:00:15;;;;;;;8.02;6.32;;;;;;;21.45;91.08;100746.53;5071439;28;20028;-72
2023/06/21 00:02:42;;;;;;;7.32;6.63;;;;;;;21.35;91.66;100732.91;5064601;28;20041;-72
2023/06/21 00:05:08;;;;;;;9.60;7.00;;;;;;;21.27;92.41;100731.28;5068963;28;20036;-72
2023/06/21 00:07:34;;;;;;;10.30;7.47;;;;;;;21.21;93.20;100726.84;5067670;28;20084;-72
2023/06/21 00:10:01;;;;;;;8.32;6.70;;;;;;;21.13;93.24;100734.97;5080552;28;20115;-72
2023/06/21 00:12:27;;;;;;;8.88;6.90;;;;;;;21.02;92.81;100733.78;5067361;28;20120;-71
2023/06/21 00:14:53;;;;;;;7.57;6.80;;;;;;;20.99;92.78;100728.06;5071285;28;20025;-72
2023/06/21 00:17:19;;;;;;;7.93;7.13;;;;;;;20.97;93.07;100730.94;5062551;28;20031;-72
2023/06/21 00:19:44;;;;;;;7.18;6.50;;;;;;;20.99;93.84;100730.72;5081273;28;20048;-72
2023/06/21 00:22:10;;;;;;;7.60;6.72;;;;;;;20.99;93.55;100723.59;5072091;28;20377;-72
2023/06/21 00:24:35;;;;;;;7.93;7.22;;;;;;;20.96;93.50;100720.53;5080499;28;20368;-72
2023/06/21 00:27:01;;;;;;;7.22;6.63;;;;;;;20.93;93.88;100720.94;5067189;28;20028;-72
2023/06/21 00:29:27;;;;;;;7.60;6.90;;;;;;;20.94;94.13;100725.22;5071912;28;20032;-71
2023/06/21 00:31:52;;;;;;;11.75;7.57;;;;;;;20.92;94.36;100721.97;5068611;28;20034;-72
2023/06/21 00:34:18;;;;;;;8.05;7.35;;;;;;;20.97;93.65;100725.63;5070666;28;20066;-71
2023/06/21 00:36:44;;;;;;;10.00;7.35;;;;;;;21.11;92.21;100737.03;5070929;28;20036;-71
2023/06/21 00:39:10;;;;;;;11.35;7.40;;;;;;;21.17;90.96;100744.16;5073069;28;20510;-72
2023/06/21 00:41:37;;;;;;;8.60;7.43;;;;;;;21.22;90.20;100741.72;5071288;28;20122;-71
2023/06/21 00:44:03;;;;;;;10.05;7.03;;;;;;;21.26;90.40;100747.44;5066202;28;20093;-72
2023/06/21 00:46:29;;;;;;;7.82;6.80;;;;;;;21.19;91.40;100747.41;5067685;28;20039;-71
2023/06/21 00:48:58;;;;;;;8.65;6.80;;;;;;;21.08;91.92;100745.38;5056740;28;20041;-72
2023/06/21 00:51:24;;;;;;;7.47;6.30;;;;;;;21.03;91.83;100739.88;5065671;28;20108;-71
2023/06/21 00:53:51;;;;;;;7.75;7.05;;;;;;;21.02;90.88;100748.84;5068744;28;20139;-71
2023/06/21 00:56:17;;;;;;;6.80;6.20;;;;;;;21.09;89.53;100754.97;5079234;28;20032;-72
2023/06/21 00:58:43;;;;;;;6.45;5.85;;;;;;;21.17;88.71;100757.41;5067778;28;20926;-71
2023/06/21 01:01:10;;;;;;;7.32;6.63;;;;;;;21.19;88.04;100750.06;5069866;28;20499;-71
2023/06/21 01:03:38;;;;;;;6.78;6.18;;;;;;;21.16;87.53;100755.75;5060687;28;20119;-71
2023/06/21 01:06:04;;;;;;;8.43;6.25;;;;;;;21.14;87.78;100753.31;5070083;28;20075;-71
2023/06/21 01:08:35;;;;;;;7.28;5.78;;;;;;;21.18;88.02;100761.69;5071379;28;20115;-72
2023/06/21 01:11:06;;;;;;;8.25;7.43;;;;;;;21.17;89.24;100757.41;5064173;28;20035;-71
2023/06/21 01:14:00;;;;;;;7.65;6.15;;;;;;;21.05;88.81;100753.75;5068761;28;20476;-71
2023/06/21 01:16:35;;;;;;;6.95;6.30;;;;;;;21.01;89.02;100753.34;5060366;28;20032;-71
2023/06/21 01:19:04;;;;;;;6.38;5.82;;;;;;;21.03;89.40;100750.47;5066073;28;20129;-71
2023/06/21 01:21:31;;;;;;;7.47;6.78;;;;;;;21.01;90.24;100750.69;5066769;28;20488;-71
2023/06/21 01:24:14;;;;;;;7.50;6.78;;;;;;;20.96;91.18;100750.47;5066528;28;20052;-72
2023/06/21 01:27:03;;;;;;;7.70;7.00;;;;;;;20.87;91.88;100752.53;5073581;28;20120;-72
2023/06/21 01:29:37;;;;;;;7.85;7.15;;;;;;;20.77;93.02;100743.38;5074213;28;20123;-72
2023/06/21 01:32:10;;;;;;;8.25;6.82;;;;;;;20.66;93.51;100739.50;5062001;28;20060;-72
2023/06/21 01:34:37;;;;;;;11.95;7.38;;;;;;;20.61;94.38;100744.59;5065536;28;20033;-72
2023/06/21 01:37:05;;;;;;;8.52;7.07;;;;;;;20.52;95.25;100741.34;5065659;28;21458;-72
2023/06/21 01:39:32;;;;;;;9.52;7.32;;;;;;;20.47;95.59;100754.34;5061648;28;20812;-72
2023/06/21 01:41:58;;;;;;;7.72;6.97;;;;;;;20.39;95.54;100753.72;5065934;28;20358;-72
2023/06/21 01:44:25;;;;;;;8.70;7.57;;;;;;;20.34;96.07;100750.84;5067822;28;20032;-72
2023/06/21 01:46:53;;;;;;;9.52;7.93;;;;;;;20.28;95.78;100754.31;5062920;28;20093;-72
2023/06/21 01:49:20;;;;;;;8.93;8.07;;;;;;;20.24;97.35;100734.56;5062444;28;20051;-72
2023/06/21 01:51:46;;;;;;;8.32;7.53;;;;;;;20.25;97.76;100737.00;5081762;28;20101;-72
2023/06/21 01:54:13;;;;;;;10.10;7.40;;;;;;;20.24;98.03;100738.03;5066754;28;20377;-72
2023/06/21 01:56:41;;;;;;;8.25;7.45;;;;;;;20.17;98.23;100739.84;5078289;28;20028;-72
2023/06/21 01:59:08;;;;;;;8.85;8.15;;;;;;;20.10;98.30;100739.00;5071474;28;20077;-72
2023/06/21 02:01:37;;;;;;;9.30;8.50;;;;;;;20.02;99.17;100732.06;5068636;28;20032;-72
2023/06/21 02:04:05;;;;;;;9.10;8.30;;;;;;;20.03;99.85;100717.84;5064239;28;20033;-72
2023/06/21 02:06:32;;;;;;;9.35;8.45;;;;;;;20.03;99.32;100744.28;5073585;28;20479;-72
2023/06/21 02:09:05;;;;;;;8.90;8.00;;;;;;;19.97;99.17;100749.53;5064505;28;20036;-72
2023/06/21 02:11:32;;;;;;;9.40;7.60;;;;;;;19.96;99.03;100738.16;5066938;28;20024;-72
2023/06/21 02:13:58;;;;;;;11.48;8.90;;;;;;;19.97;99.90;100729.19;5069475;28;20043;-72
2023/06/21 02:16:30;;;;;;;8.73;7.93;;;;;;;20.02;100.00;100731.25;5068540;28;20037;-72
2023/06/21 02:18:56;;;;;;;9.93;8.80;;;;;;;20.05;100.00;100738.78;5067247;28;20465;-72
2023/06/21 02:21:22;;;;;;;9.50;8.50;;;;;;;20.06;100.00;100735.94;5072519;28;20020;-72
2023/06/21 02:23:49;;;;;;;12.82;9.48;;;;;;;20.06;100.00;100730.66;5073378;28;20036;-72
2023/06/21 02:26:17;;;;;;;10.32;9.35;;;;;;;20.05;100.00;100736.16;5065109;28;20753;-72
2023/06/21 02:28:43;;;;;;;11.55;9.43;;;;;;;20.08;100.00;100739.22;5071003;28;20403;-72
2023/06/21 02:31:10;;;;;;;11.93;8.73;;;;;;;20.10;100.00;100729.25;5077031;28;20127;-72
2023/06/21 02:33:35;;;;;;;10.55;9.05;;;;;;;20.12;100.00;100726.41;5068576;28;20025;-72
2023/06/21 02:36:02;;;;;;;9.45;8.55;;;;;;;20.14;100.00;100727.00;5066040;28;20086;-72
2023/06/21 02:38:28;;;;;;;10.73;9.00;;;;;;;20.25;100.00;100738.84;5072217;28;20055;-72
2023/06/21 02:40:54;;;;;;;9.45;8.45;;;;;;;20.27;99.80;100728.88;5066909;28;20434;-72
2023/06/21 02:43:20;;;;;;;9.95;9.05;;;;;;;20.21;99.23;100741.06;5064119;28;20036;-72
2023/06/21 02:45:47;;;;;;;11.65;8.30;;;;;;;20.26;98.18;100735.19;5068271;28;20024;-72
2023/06/21 02:48:13;;;;;;;11.52;8.88;;;;;;;20.29;97.86;100750.66;5072726;28;20066;-72
2023/06/21 02:50:39;;;;;;;12.10;8.00;;;;;;;20.32;96.80;100750.25;5073216;28;20618;-72
2023/06/21 02:53:05;;;;;;;10.35;8.40;;;;;;;20.32;96.14;100752.91;5071383;28;20111;-72
2023/06/21 02:55:30;;;;;;;8.85;8.05;;;;;;;20.28;96.50;100746.38;5067841;28;20129;-72
2023/06/21 02:57:55;;;;;;;13.20;7.40;;;;;;;20.24;96.28;100735.38;5074781;28;20151;-72
2023/06/21 03:00:32;;;;;;;8.13;6.95;;;;;;;20.26;94.85;100730.72;5084711;28;20039;-72
2023/06/21 03:03:00;;;;;;;7.90;7.18;;;;;;;20.28;93.78;100728.69;5067491;28;20037;-72
2023/06/21 03:05:29;;;;;;;8.18;7.10;;;;;;;20.28;93.06;100728.69;5071735;28;20105;-72
2023/06/21 03:07:56;;;;;;;8.07;7.28;;;;;;;20.34;92.49;100737.59;5079750;28;20438;-72
2023/06/21 03:10:21;;;;;;;7.28;6.35;;;;;;;20.38;91.66;100731.75;5070841;28;20024;-72
2023/06/21 03:12:47;;;;;;;8.65;6.70;;;;;;;20.36;91.30;100733.75;5075085;28;20069;-72
2023/06/21 03:15:14;;;;;;;9.20;6.70;;;;;;;20.37;90.69;100739.84;5075282;28;20115;-72
2023/06/21 03:17:40;;;;;;;7.32;6.72;;;;;;;20.42;91.74;100746.22;5060558;28;20036;-73
2023/06/21 03:20:12;;;;;;;7.88;6.55;;;;;;;20.33;93.18;100749.22;5073767;28;20069;-72
2023/06/21 03:22:38;;;;;;;9.70;6.80;;;;;;;20.16;93.94;100748.78;5082947;28;20436;-72
2023/06/21 03:25:04;;;;;;;6.72;6.18;;;;;;;20.09;94.41;100764.63;5068493;28;20045;-72
2023/06/21 03:27:30;;;;;;;6.75;6.13;;;;;;;20.11;92.22;100765.25;5077377;28;20044;-72
2023/06/21 03:29:56;;;;;;;6.75;6.15;;;;;;;20.18;90.76;100758.16;5090061;28;20045;-72
2023/06/21 03:32:21;;;;;;;9.02;5.75;;;;;;;20.19;90.01;100765.09;5068069;28;20361;-72
2023/06/21 03:34:49;;;;;;;8.20;6.28;;;;;;;20.18;89.94;100763.44;5074949;28;20024;-72
2023/06/21 03:37:14;;;;;;;5.97;5.38;;;;;;;20.18;89.51;100774.03;5085368;28;20039;-72
2023/06/21 03:39:39;;;;;;;6.88;6.18;;;;;;;20.20;89.17;100776.47;5064602;28;20032;-72
2023/06/21 03:42:06;;;;;;;12.50;6.90;;;;;;;20.17;90.16;100763.66;5069682;28;20033;-72
2023/06/21 03:44:31;;;;;;;7.40;6.60;;;;;;;20.12;90.47;100774.00;5075577;28;20043;-72
2023/06/21 03:46:58;;;;;;;9.90;6.70;;;;;;;20.09;91.04;100779.69;5068575;28;20032;-72
2023/06/21 03:49:25;;;;;;;8.25;6.18;;;;;;;20.02;91.54;100779.66;5068492;28;20124;-71
2023/06/21 03:51:51;;;;;;;6.65;5.53;;;;;;;20.01;91.45;100787.81;5056630;28;20033;-72
2023/06/21 03:54:17;;;;;;;6.80;6.10;;;;;;;20.01;91.37;100777.22;5066014;28;20040;-72
2023/06/21 03:56:42;;;;;;;10.88;6.03;;;;;;;20.00;91.32;100778.25;5069130;28;20032;-72
2023/06/21 03:59:08;;;;;;;6.90;6.25;;;;;;;19.98;91.14;100781.09;5070038;28;20036;-71
2023/06/21 04:01:35;;;;;;;8.15;6.47;;;;;;;20.03;90.78;100783.94;5067048;28;20032;-71
2023/06/21 04:04:01;;;;;;;12.32;7.38;;;;;;;20.09;91.94;100787.63;5064519;28;20044;-71
2023/06/21 04:06:26;;;;;;;7.70;6.90;;;;;;;20.14;92.86;100782.56;5079052;28;20540;-71
2023/06/21 04:08:52;;;;;;;11.18;8.40;;;;;;;20.09;94.06;100790.28;5068548;28;20038;-71
2023/06/21 04:11:18;;;;;;;9.15;8.20;;;;;;;20.05;95.86;100791.69;5076284;28;20032;-71
2023/06/21 04:13:43;;;;;;;10.82;8.32;;;;;;;20.10;96.56;100791.91;5075779;28;20054;-72
2023/06/21 04:16:09;;;;;;;10.25;7.85;;;;;;;20.24;97.26;100792.78;5067578;28;20035;-71
2023/06/21 04:18:36;;;;;;;8.75;7.15;;;;;;;20.25;96.63;100789.09;5067345;28;20036;-71
2023/06/21 04:21:01;;;;;;;10.82;6.60;;;;;;;20.23;93.58;100783.19;5069729;28;20024;-71
2023/06/21 04:23:28;;;;;;;6.82;6.00;;;;;;;20.31;90.40;100783.03;5073243;28;20373;-71
2023/06/21 04:25:53;;;;;;;9.02;5.70;;;;;;;20.36;88.62;100781.38;5072317;28;20115;-72
2023/06/21 04:28:25;;;;;;;10.55;5.10;;;;;;;20.32;88.88;100776.72;5071212;28;20500;-72
2023/06/21 04:30:55;;;;;;;7.38;5.53;;;;;;;20.34;88.58;100782.59;5072359;28;20031;-71
2023/06/21 04:33:21;;;;;;;9.60;6.40;;;;;;;20.34;89.05;100778.13;5067896;28;20056;-71
2023/06/21 04:35:47;;;;;;;6.88;6.00;;;;;;;20.36;88.92;100772.63;5071371;28;20105;-72
2023/06/21 04:38:12;;;;;;;6.63;5.45;;;;;;;20.37;88.90;100771.59;5067793;28;20116;-71
2023/06/21 04:40:37;;;;;;;8.45;6.55;;;;;;;20.42;88.28;100769.22;5071605;28;20024;-72
2023/06/21 04:43:06;;;;;;;15.18;7.03;;;;;;;20.47;88.38;100777.34;5072745;28;20039;-71
2023/06/21 04:45:32;;;;;;;9.18;6.88;;;;;;;20.50;87.61;100777.78;5067638;28;20028;-71
2023/06/21 04:47:58;;;;;;;11.43;6.50;;;;;;;20.52;87.86;100780.22;5062744;28;20029;-70
2023/06/21 04:50:26;;;;;;;7.97;5.55;;;;;;;20.54;87.10;100786.94;5066867;28;20024;-70
2023/06/21 04:52:57;;;;;;;11.40;6.45;;;;;;;20.57;87.20;100792.84;5071185;28;20051;-70
2023/06/21 04:55:23;;;;;;;6.97;5.72;;;;;;;20.58;86.98;100787.34;5075855;28;20396;-72
2023/06/21 04:57:49;;;;;;;8.25;5.70;;;;;;;20.59;87.11;100786.34;5063226;28;20024;-70
2023/06/21 05:00:15;;;;;;;12.60;7.18;;;;;;;20.63;86.86;100792.03;5062620;28;20036;-70
2023/06/21 05:02:41;;;;;;;12.18;6.43;;;;;;;20.68;86.79;100785.13;5063571;28;20037;-71
2023/06/21 05:05:06;;;;;;;8.05;6.38;;;;;;;20.74;86.30;100786.16;5066029;28;20043;-71
2023/06/21 05:07:32;;;;;;;9.27;5.90;;;;;;;20.74;86.10;100786.16;5067467;28;20048;-71
2023/06/21 05:09:57;;;;;;;9.40;6.55;;;;;;;20.74;86.18;100779.03;5076190;28;20123;-72
2023/06/21 05:12:23;;;;;;;6.88;5.88;;;;;;;20.80;86.52;100788.78;5066611;28;20024;-71
2023/06/21 05:14:48;;;;;;;10.23;6.00;;;;;;;20.87;85.52;100781.66;5076253;28;20119;-70
2023/06/21 05:17:15;;;;;;;6.50;5.90;;;;;;;20.91;85.40;100778.59;5058704;28;20059;-70
2023/06/21 05:19:44;;;;;;;10.68;4.97;;;;;;;21.01;84.65;100779.00;5062057;28;20051;-71
2023/06/21 05:22:09;;;;;;;8.65;5.50;;;;;;;21.06;84.10;100776.56;5076957;28;20035;-70
2023/06/21 05:24:37;;;;;;;9.57;5.65;;;;;;;21.12;83.15;100781.84;5069458;28;20032;-70
2023/06/21 05:27:02;;;;;;;8.60;5.40;;;;;;;21.22;83.07;100786.78;5069361;28;20078;-70
2023/06/21 05:29:28;;;;;;;7.95;4.85;;;;;;;21.27;82.11;100780.84;5075757;28;20063;-70
2023/06/21 05:31:54;;;;;;;5.10;4.57;;;;;;;21.33;81.86;100783.47;5063046;28;20032;-70
2023/06/21 05:34:19;;;;;;;6.72;5.40;;;;;;;21.40;82.13;100786.09;5069217;28;20577;-70
2023/06/21 05:36:44;;;;;;;7.25;5.07;;;;;;;21.47;82.06;100798.31;5072743;28;20059;-69
2023/06/21 05:39:10;;;;;;;11.10;6.10;;;;;;;21.56;82.02;100795.44;5072682;28;20032;-70
2023/06/21 05:41:36;;;;;;;10.38;7.03;;;;;;;21.63;82.83;100793.59;5066771;28;20354;-71
2023/06/21 05:44:01;;;;;;;12.57;6.60;;;;;;;21.70;82.99;100789.09;5070287;28;20168;-72
2023/06/21 05:46:27;;;;;;;12.70;6.60;;;;;;;21.82;82.83;100792.69;5072347;28;20048;-72
2023/06/21 05:48:52;;;;;;;9.23;6.95;;;;;;;21.93;83.05;100789.38;5071122;28;20040;-72
2023/06/21 05:51:17;;;;;;;11.25;7.30;;;;;;;21.91;82.55;100788.78;5067888;28;20391;-70
2023/06/21 05:53:44;;;;;;;9.55;6.90;;;;;;;21.92;82.59;100789.59;5079172;28;22223;-71
2023/06/21 05:56:10;;;;;;;7.93;6.50;;;;;;;21.97;82.57;100787.94;5073865;28;20029;-71
2023/06/21 05:58:36;;;;;;;8.73;5.88;;;;;;;22.10;81.42;100793.22;5072976;28;20096;-70
2023/06/21 06:01:02;;;;;;;8.30;5.38;;;;;;;22.24;80.67;100790.47;5065929;28;20111;-71
2023/06/21 06:03:30;;;;;;;11.25;5.32;;;;;;;22.41;80.18;100796.91;5066310;28;20055;-71
2023/06/21 06:05:56;;;;;;;10.13;5.88;;;;;;;22.61;79.25;100792.28;5066630;28;20032;-71
2023/06/21 06:08:22;;;;;;;5.30;4.80;;;;;;;22.81;78.59;100786.84;5060415;28;20040;-71
2023/06/21 06:10:48;;;;;;;8.20;5.50;;;;;;;22.99;78.15;100794.88;5068374;28;20024;-71
2023/06/21 06:13:14;;;;;;;8.27;5.60;;;;;;;23.09;77.30;100795.19;5062140;28;20031;-71
2023/06/21 06:15:39;;;;;;;9.70;5.60;;;;;;;23.20;76.66;100793.63;5079603;28;20541;-71
2023/06/21 06:18:04;;;;;;;5.50;5.00;;;;;;;23.25;76.67;100792.97;5059423;28;20123;-71
2023/06/21 06:20:30;;;;;;;11.00;5.13;;;;;;;23.34;76.33;100792.47;5065554;28;20412;-71
2023/06/21 06:22:55;;;;;;;8.73;5.38;;;;;;;23.48;76.32;100793.16;5072270;28;20036;-72
2023/06/21 06:25:21;;;;;;;7.25;5.47;;;;;;;23.54;76.31;100802.13;5075390;28;20029;-72
2023/06/21 06:27:46;;;;;;;6.07;5.38;;;;;;;23.48;75.59;100788.66;5067470;28;20033;-72
2023/06/21 06:30:12;;;;;;;5.70;5.00;;;;;;;23.57;75.63;100793.72;5070645;28;20021;-72
2023/06/21 06:32:37;;;;;;;8.10;5.00;;;;;;;23.70;74.88;100796.19;5062008;28;20033;-71
2023/06/21 06:35:03;;;;;;;7.18;5.40;;;;;;;23.76;74.65;100790.00;5068675;28;20035;-71
2023/06/21 06:37:29;;;;;;;8.65;5.22;;;;;;;23.88;74.45;100793.53;5067954;28;20542;-72
2023/06/21 06:39:55;;;;;;;8.35;5.03;;;;;;;23.91;73.89;100798.41;5066319;28;20040;-71
2023/06/21 06:42:20;;;;;;;5.10;4.60;;;;;;;23.98;73.61;100798.31;5060846;28;20033;-71
2023/06/21 06:44:47;;;;;;;5.78;4.68;;;;;;;24.07;73.33;100797.00;5061274;28;20431;-71
2023/06/21 06:47:13;;;;;;;7.47;5.07;;;;;;;24.13;72.52;100794.22;5069630;28;20107;-71
2023/06/21 06:49:39;;;;;;;5.30;4.80;;;;;;;24.22;72.28;100792.03;5076189;28;20492;-67
2023/06/21 06:52:05;;;;;;;6.72;4.88;;;;;;;24.33;72.49;100793.16;5073564;28;20024;-67
2023/06/21 06:54:31;;;;;;;11.95;5.38;;;;;;;24.32;72.79;100799.53;5070928;28;20032;-67
2023/06/21 06:56:57;;;;;;;15.55;5.15;;;;;;;24.47;72.74;100791.94;5074719;28;20033;-68
2023/06/21 06:59:23;;;;;;;6.90;5.18;;;;;;;24.62;71.60;100794.94;5064437;28;20138;-68
2023/06/21 07:01:48;;;;;;;10.65;5.80;;;;;;;24.69;71.38;100793.00;5069681;28;20055;-68
2023/06/21 07:04:14;;;;;;;9.38;5.63;;;;;;;24.74;70.73;100800.31;5078539;28;20082;-68
2023/06/21 07:06:41;;;;;;;7.15;5.40;;;;;;;24.67;71.36;100807.59;5080095;28;20530;-68
2023/06/21 07:09:08;;;;;;;8.85;5.20;;;;;;;24.75;71.37;100816.06;5076647;28;20024;-68
2023/06/21 07:11:34;;;;;;;11.45;5.95;;;;;;;24.75;71.69;100813.41;5076999;28;20025;-68
2023/06/21 07:13:59;;;;;;;8.48;5.40;;;;;;;24.96;71.01;100809.41;5069553;28;20047;-68
2023/06/21 07:16:25;;;;;;;7.60;4.88;;;;;;;25.11;69.99;100806.28;5071578;28;20024;-67
2023/06/21 07:18:50;;;;;;;8.70;5.50;;;;;;;25.18;69.94;100814.16;5075208;28;20036;-68
2023/06/21 07:21:17;;;;;;;8.10;5.43;;;;;;;25.20;70.42;100807.56;5076867;28;20036;-67
2023/06/21 07:23:43;;;;;;;7.10;4.78;;;;;;;25.36;69.93;100811.38;5082469;28;20052;-67
2023/06/21 07:26:09;;;;;;;8.45;5.45;;;;;;;25.41;68.68;100814.16;5080535;28;20380;-67
2023/06/21 07:28:34;;;;;;;8.82;4.65;;;;;;;25.53;68.00;100806.13;5069642;28;20036;-67
2023/06/21 07:31:00;;;;;;;9.70;5.00;;;;;;;25.60;67.73;100812.13;5071985;28;20177;-67
2023/06/21 07:33:25;;;;;;;7.55;4.93;;;;;;;25.67;67.62;100810.19;5075081;28;20028;-67
2023/06/21 07:35:51;;;;;;;12.00;5.20;;;;;;;25.74;67.18;100810.88;5065478;28;20054;-67
2023/06/21 07:38:16;;;;;;;4.78;4.20;;;;;;;25.79;65.38;100816.31;5073592;28;20132;-67
2023/06/21 07:40:42;;;;;;;6.95;4.18;;;;;;;25.94;65.16;100813.13;5073089;28;20089;-67
2023/06/21 07:43:08;;;;;;;7.80;4.00;;;;;;;26.01;64.19;100809.25;5070287;28;20127;-67
2023/06/21 07:45:34;;;;;;;13.73;4.60;;;;;;;26.06;63.81;100814.69;5073126;28;20387;-66
2023/06/21 07:47:59;;;;;;;5.75;4.75;;;;;;;26.23;63.84;100817.41;5075895;28;20036;-66
2023/06/21 07:50:27;;;;;;;7.03;4.15;;;;;;;26.61;63.95;100810.63;5072370;28;20024;-67
2023/06/21 07:52:53;;;;;;;6.95;3.85;;;;;;;26.81;62.97;100810.16;5078898;28;20031;-68
2023/06/21 07:55:19;;;;;;;9.23;4.90;;;;;;;26.82;62.91;100815.25;5078053;28;20109;-67
2023/06/21 07:57:44;;;;;;;5.72;4.57;;;;;;;26.88;62.70;100810.81;5076116;28;20152;-70
2023/06/21 08:00:11;;;;;;;4.03;3.63;;;;;;;26.97;61.68;100806.69;5079260;28;20028;-70
2023/06/21 08:02:37;;;;;;;5.45;3.92;;;;;;;27.12;60.90;100806.91;5078648;28;20041;-70
2023/06/21 08:05:04;;;;;;;4.78;4.07;;;;;;;27.14;59.15;100807.47;5081004;28;20036;-70
2023/06/21 08:07:30;;;;;;;6.75;4.03;;;;;;;27.28;59.33;100807.94;5074816;28;20032;-71
2023/06/21 08:09:55;;;;;;;6.82;3.30;;;;;;;27.48;57.71;100804.72;5085407;28;20097;-70
2023/06/21 08:12:21;;;;;;;5.80;3.05;;;;;;;27.61;58.39;100812.41;5082421;28;20032;-70
2023/06/21 08:14:46;;;;;;;5.38;3.30;;;;;;;27.71;57.43;100813.34;5081598;28;20093;-70
2023/06/21 08:17:12;;;;;;;5.50;3.10;;;;;;;27.79;57.96;100812.13;5085716;28;20472;-71
2023/06/21 08:19:37;;;;;;;5.75;3.40;;;;;;;27.83;58.42;100821.25;5085194;28;20052;-71
2023/06/21 08:22:03;;;;;;;4.25;3.85;;;;;;;27.85;58.35;100816.47;5080477;28;20505;-70
2023/06/21 08:24:28;;;;;;;10.70;4.40;;;;;;;27.81;58.63;100812.66;5081843;28;20037;-71
2023/06/21 08:26:53;;;;;;;6.55;3.97;;;;;;;27.90;58.31;100810.34;5069619;28;20029;-71
2023/06/21 08:29:19;;;;;;;6.32;4.28;;;;;;;28.02;58.00;100811.81;5077037;28;20036;-70
2023/06/21 08:31:44;;;;;;;4.18;3.85;;;;;;;28.07;58.45;100814.56;5069451;28;20036;-70
2023/06/21 08:34:10;;;;;;;4.95;4.15;;;;;;;28.12;59.59;100807.63;5061875;28;20037;-69
2023/06/21 08:36:35;;;;;;;7.50;4.00;;;;;;;28.16;59.42;100803.41;5069237;28;20047;-70
2023/06/21 08:39:01;;;;;;;6.07;4.28;;;;;;;28.15;59.50;100799.91;5063331;28;20075;-70
2023/06/21 08:41:26;;;;;;;9.00;4.68;;;;;;;28.30;59.42;100804.66;5062474;28;20021;-70
2023/06/21 08:43:52;;;;;;;5.03;4.53;;;;;;;28.38;59.55;100796.13;5062266;28;20025;-70
2023/06/21 08:46:23;;;;;;;4.20;3.83;;;;;;;28.31;58.62;100795.56;5065710;28;20029;-70
2023/06/21 08:48:51;;;;;;;4.75;3.90;;;;;;;28.33;59.30;100804.16;5061017;28;20115;-70
2023/06/21 08:51:21;;;;;;;7.43;4.68;;;;;;;28.43;58.65;100804.22;5060710;28;20024;-70
2023/06/21 08:53:55;;;;;;;7.40;3.88;;;;;;;28.54;57.07;100800.56;5067915;28;20037;-69
2023/06/21 08:56:23;;;;;;;4.10;3.70;;;;;;;28.63;57.04;100799.03;5060854;28;20717;-70
2023/06/21 08:59:18;;;;;;;4.88;3.95;;;;;;;28.46;56.08;100795.66;5064691;28;20479;-70
2023/06/21 09:02:08;;;;;;;5.78;4.25;;;;;;;28.63;58.59;100788.31;5064908;28;20472;-72
2023/06/21 09:04:42;;;;;;;6.25;4.68;;;;;;;28.82;59.24;100790.63;5066068;28;20507;-69
2023/06/21 09:07:11;;;;;;;4.90;4.05;;;;;;;28.69;58.44;100787.28;5067424;28;20040;-70
2023/06/21 09:09:39;;;;;;;6.93;4.15;;;;;;;28.55;58.41;100783.41;5067583;28;20041;-69
2023/06/21 09:12:07;;;;;;;6.13;4.32;;;;;;;28.58;57.28;100790.16;5057651;28;20412;-70
2023/06/21 09:14:33;;;;;;;6.82;4.65;;;;;;;28.78;57.94;100781.47;5065092;28;20079;-69
2023/06/21 09:17:02;;;;;;;7.80;4.03;;;;;;;28.99;57.31;100785.91;5079568;28;20032;-69
2023/06/21 09:19:28;;;;;;;5.57;4.93;;;;;;;28.90;56.66;100792.81;5075484;28;20032;-69
2023/06/21 09:21:58;;;;;;;5.97;4.55;;;;;;;28.91;57.08;100789.88;5073850;28;20032;-70
2023/06/21 09:24:23;;;;;;;8.55;4.80;;;;;;;28.94;57.22;100783.19;5084353;28;20040;-70
2023/06/21 09:26:49;;;;;;;5.38;4.18;;;;;;;29.15;56.58;100790.31;5068827;28;20029;-70
2023/06/21 09:29:16;;;;;;;7.00;4.50;;;;;;;29.22;57.12;100795.44;5086447;28;20039;-69
2023/06/21 09:31:42;;;;;;;7.30;5.22;;;;;;;29.27;56.80;100790.91;5074676;28;21603;-69
2023/06/21 09:34:07;;;;;;;9.55;5.68;;;;;;;29.24;57.18;100796.00;5065209;28;20071;-69
2023/06/21 09:36:33;;;;;;;10.35;5.18;;;;;;;29.14;57.77;100794.06;5059814;28;20074;-69
2023/06/21 09:39:09;;;;;;;11.38;4.90;;;;;;;29.15;59.15;100795.66;5066646;28;20029;-70
2023/06/21 09:41:34;;;;;;;23.25;8.38;;;;;;;29.26;58.36;100797.34;5066012;28;20040;-70
2023/06/21 09:44:00;;;;;;;12.52;6.38;;;;;;;29.26;58.40;100797.34;5069885;28;20115;-69
2023/06/21 09:46:26;;;;;;;9.00;6.00;;;;;;;29.25;58.30;100795.75;5072533;28;20036;-69
2023/06/21 09:48:52;;;;;;;7.95;5.47;;;;;;;29.14;59.31;100802.09;5066545;28;20092;-69
2023/06/21 09:51:23;;;;;;;12.10;5.50;;;;;;;29.32;59.23;100803.53;5062259;28;20029;-69
2023/06/21 09:53:50;;;;;;;6.22;5.35;;;;;;;29.42;59.51;100792.88;5068946;28;20081;-69
2023/06/21 09:56:19;;;;;;;5.72;5.22;;;;;;;29.37;59.19;100799.00;5070195;28;20040;-69
2023/06/21 09:58:50;;;;;;;8.48;6.18;;;;;;;29.32;61.02;100798.97;5059278;28;20027;-69
2023/06/21 10:01:16;;;;;;;6.07;5.32;;;;;;;29.32;61.53;100798.16;5061182;28;20064;-69
2023/06/21 10:03:46;;;;;;;5.32;4.93;;;;;;;29.33;60.00;100803.28;5062421;28;20040;-69
2023/06/21 10:06:18;;;;;;;6.07;4.85;;;;;;;29.50;60.46;100799.63;5069958;28;20040;-70
2023/06/21 10:08:47;;;;;;;8.23;6.05;;;;;;;29.48;60.05;100793.72;5070208;28;20036;-70
2023/06/21 10:11:16;;;;;;;7.68;5.05;;;;;;;29.39;61.01;100807.59;5076943;28;20083;-69
2023/06/21 10:13:42;;;;;;;5.50;5.00;;;;;;;29.42;60.79;100806.31;5075365;28;20442;-70
2023/06/21 10:16:07;;;;;;;6.15;4.80;;;;;;;29.42;60.82;100808.19;5076123;28;20032;-70
2023/06/21 10:18:34;;;;;;;5.93;4.38;;;;;;;29.42;60.58;100811.66;5078436;28;20039;-71
2023/06/21 10:21:05;;;;;;;5.90;5.20;;;;;;;29.29;61.31;100802.19;5078499;28;20440;-71
2023/06/21 10:23:37;;;;;;;10.88;5.47;;;;;;;29.04;61.73;100804.72;5070989;28;20040;-69
2023/06/21 10:26:05;;;;;;;5.60;4.80;;;;;;;29.16;61.51;100805.34;5068771;28;20077;-69
2023/06/21 10:28:36;;;;;;;9.85;5.00;;;;;;;29.31;60.96;100805.41;5074745;28;20025;-70
2023/06/21 10:31:03;;;;;;;5.35;4.78;;;;;;;29.43;61.61;100799.88;5080378;28;20556;-69
2023/06/21 10:33:30;;;;;;;5.00;4.32;;;;;;;29.53;60.08;100799.91;5079350;28;20342;-69
2023/06/21 10:35:59;;;;;;;5.70;5.20;;;;;;;29.08;60.25;100803.13;5085645;28;20038;-69
2023/06/21 10:38:43;;;;;;;6.65;4.72;;;;;;;28.87;61.99;100806.75;5082257;28;20035;-69
2023/06/21 10:41:09;;;;;;;7.82;4.03;;;;;;;29.17;61.83;100809.63;5072183;28;20069;-71
2023/06/21 10:43:35;;;;;;;4.88;4.28;;;;;;;29.30;61.48;100801.09;5074944;28;20044;-70
2023/06/21 10:46:04;;;;;;;6.93;4.15;;;;;;;29.29;61.13;100796.84;5078113;28;20064;-70
2023/06/21 10:48:33;;;;;;;4.35;4.00;;;;;;;29.23;61.67;100794.38;5083934;28;20119;-70
2023/06/21 10:51:02;;;;;;;6.88;4.25;;;;;;;29.13;61.87;100797.00;5075883;28;20028;-70
2023/06/21 10:53:35;;;;;;;4.95;4.45;;;;;;;29.12;61.42;100792.69;5069663;28;20044;-69
2023/06/21 10:56:07;;;;;;;12.77;4.80;;;;;;;29.05;62.24;100792.91;5068461;28;20035;-70
2023/06/21 10:58:33;;;;;;;6.75;4.18;;;;;;;28.97;62.19;100799.56;5059942;28;20188;-69
2023/06/21 11:00:59;;;;;;;4.97;4.38;;;;;;;29.01;62.09;100800.69;5067859;28;20024;-69
2023/06/21 11:03:26;;;;;;;5.82;3.97;;;;;;;29.08;62.34;100802.31;5067267;28;20463;-71
2023/06/21 11:06:15;;;;;;;7.20;4.38;;;;;;;29.00;62.52;100804.44;5065939;28;20040;-70
2023/06/21 11:08:40;;;;;;;4.85;3.78;;;;;;;28.94;63.14;100804.66;5069950;28;20031;-71
2023/06/21 11:11:07;;;;;;;7.20;4.90;;;;;;;29.07;62.72;100798.84;5075144;28;20437;-71
2023/06/21 11:13:37;;;;;;;8.75;4.75;;;;;;;29.09;62.50;100804.75;5067365;28;20029;-71
2023/06/21 11:16:15;;;;;;;6.25;4.25;;;;;;;29.16;61.99;100802.66;5068474;28;20179;-71
2023/06/21 11:18:43;;;;;;;5.75;4.05;;;;;;;29.28;61.29;100810.50;5077705;28;20036;-71
2023/06/21 11:21:10;;;;;;;4.60;4.18;;;;;;;29.14;62.19;100799.41;5071018;28;20062;-70
2023/06/21 11:23:50;;;;;;;7.50;4.95;;;;;;;29.21;62.47;100804.56;5070088;28;20123;-68